Time;durP1;ratioP1;P1;durP2;ratioP2;P2;SDS_P1;SDS_P2;PMS_P1;PMS_P2;Temp;Humidity;BMP_temperature;BMP_pressure;BME280_temperature;BME280_humidity;BME280_pressure;Samples;Min_cycle;Max_cycle;Signal;HPM_P1;HPM_P2
2023/01/14 00:01:32;;;;;;;;;;;;;;;;;;6241875;23;19940;-86
2023/01/14 00:03:58;;;;;;;;;;;;;;;;;;6242482;23;20088;-84
2023/01/14 00:06:23;;;;;;;;;;;;;;;;;;6192835;23;19983;-85
2023/01/14 00:08:49;;;;;;;;;;;;;;;;;;6240623;23;19912;-84
2023/01/14 00:11:15;;;;;;;;;;;;;;;;;;6216105;23;19916;-84
2023/01/14 00:13:41;;;;;;;;;;;;;;;;;;6241892;23;19955;-85
2023/01/14 00:16:07;;;;;;;;;;;;;;;;;;6241093;23;19919;-84
2023/01/14 00:18:33;;;;;;;;;;;;;;;;;;6241876;23;19935;-86
2023/01/14 00:20:58;;;;;;;;;;;;;;;;;;6241560;23;19919;-85
2023/01/14 00:23:24;;;;;;;;;;;;;;;;;;6242910;23;19911;-86
2023/01/14 00:25:50;;;;;;;;;;;;;;;;;;6240651;23;19927;-84
2023/01/14 00:28:15;;;;;;;;;;;;;;;;;;6212977;23;20323;-83
2023/01/14 00:30:42;;;;;;;;;;;;;;;;;;6211415;23;19919;-85
2023/01/14 00:33:08;;;;;;;;;;;;;;;;;;6237451;23;19912;-83
2023/01/14 00:35:34;;;;;;;;;;;;;;;;;;6235147;23;20036;-84
2023/01/14 00:37:59;;;;;;;;;;;;;;;;;;6234887;23;19920;-84
2023/01/14 00:40:25;;;;;;;;;;;;;;;;;;6209456;23;19896;-84
2023/01/14 00:42:51;;;;;;;;;;;;;;;;;;6237325;23;19912;-84
2023/01/14 00:45:17;;;;;;;;;;;;;;;;;;6212095;23;19918;-83
2023/01/14 00:47:43;;;;;;;;;;;;;;;;;;6210767;23;19912;-83
2023/01/14 00:50:08;;;;;;;;;;;;;;;;;;6234992;23;19912;-82
2023/01/14 00:52:34;;;;;;;;;;;;;;;;;;6237201;23;19951;-81
2023/01/14 00:55:00;;;;;;;;;;;;;;;;;;6236239;23;19918;-84
2023/01/14 00:57:26;;;;;;;;;;;;;;;;;;6212782;23;19919;-82
2023/01/14 00:59:52;;;;;;;;;;;;;;;;;;6237625;23;19912;-84
2023/01/14 01:02:18;;;;;;;;;;;;;;;;;;6235163;23;19939;-82
2023/01/14 01:04:43;;;;;;;;;;;;;;;;;;6237844;23;20427;-85
2023/01/14 01:07:09;;;;;;;;;;;;;;;;;;6237477;23;19935;-83
2023/01/14 01:09:36;;;;;;;;;;;;;;;;;;6210152;23;19926;-83
2023/01/14 01:12:03;;;;;;;;;;;;;;;;;;6238865;23;19918;-85
2023/01/14 01:14:29;;;;;;;;;;;;;;;;;;6238544;23;19896;-85
2023/01/14 01:16:55;;;;;;;;;;;;;;;;;;6239314;23;19931;-83
2023/01/14 01:19:21;;;;;;;;;;;;;;;;;;6228479;23;19935;-82
2023/01/14 01:21:47;;;;;;;;;;;;;;;;;;6219958;23;19912;-81
2023/01/14 01:24:13;;;;;;;;;;;;;;;;;;6214966;23;19918;-80
2023/01/14 01:26:39;;;;;;;;;;;;;;;;;;6212330;23;19918;-80
2023/01/14 01:29:04;;;;;;;;;;;;;;;;;;6212236;23;19912;-80
2023/01/14 01:31:30;;;;;;;;;;;;;;;;;;6212272;23;20342;-80
2023/01/14 01:33:56;;;;;;;;;;;;;;;;;;6211022;23;19923;-81
2023/01/14 01:36:22;;;;;;;;;;;;;;;;;;6185802;23;19931;-80
2023/01/14 01:38:47;;;;;;;;;;;;;;;;;;6211677;23;19920;-80
2023/01/14 01:41:14;;;;;;;;;;;;;;;;;;6212530;23;20283;-80
2023/01/14 01:43:40;;;;;;;;;;;;;;;;;;6184895;23;19912;-79
2023/01/14 01:46:05;;;;;;;;;;;;;;;;;;6211033;23;19922;-80
2023/01/14 01:48:31;;;;;;;;;;;;;;;;;;6185474;23;19912;-80
2023/01/14 01:50:57;;;;;;;;;;;;;;;;;;6210346;23;19991;-80
2023/01/14 01:53:24;;;;;;;;;;;;;;;;;;6210763;23;20376;-80
2023/01/14 01:55:49;;;;;;;;;;;;;;;;;;6210239;23;19919;-80
2023/01/14 01:58:15;;;;;;;;;;;;;;;;;;6210689;23;19920;-80
2023/01/14 02:00:41;;;;;;;;;;;;;;;;;;6185702;23;19912;-81
2023/01/14 02:03:07;;;;;;;;;;;;;;;;;;6213488;23;19967;-80
2023/01/14 02:05:33;;;;;;;;;;;;;;;;;;6212873;23;20238;-80
2023/01/14 02:07:59;;;;;;;;;;;;;;;;;;6211061;23;19911;-79
2023/01/14 02:10:25;;;;;;;;;;;;;;;;;;6212921;23;19911;-80
2023/01/14 02:12:50;;;;;;;;;;;;;;;;;;6211494;23;19911;-80
2023/01/14 02:15:16;;;;;;;;;;;;;;;;;;6186815;23;19922;-80
2023/01/14 02:17:42;;;;;;;;;;;;;;;;;;6168521;23;19927;-82
2023/01/14 02:20:08;;;;;;;;;;;;;;;;;;6190278;23;19912;-79
2023/01/14 02:22:33;;;;;;;;;;;;;;;;;;6211173;23;19919;-79
2023/01/14 02:25:02;;;;;;;;;;;;;;;;;;6210301;23;20341;-78
2023/01/14 02:27:28;;;;;;;;;;;;;;;;;;6209219;23;19912;-80
2023/01/14 02:29:54;;;;;;;;;;;;;;;;;;6209448;23;19934;-80
2023/01/14 02:32:20;;;;;;;;;;;;;;;;;;6187135;23;19915;-79
2023/01/14 02:34:46;;;;;;;;;;;;;;;;;;6213448;23;20375;-81
2023/01/14 02:37:12;;;;;;;;;;;;;;;;;;6216788;23;19920;-82
2023/01/14 02:39:38;;;;;;;;;;;;;;;;;;6194090;23;19919;-81
2023/01/14 02:44:49;;;;;;;;;;;;;;;;;;6219493;23;19912;-80
2023/01/14 02:47:14;;;;;;;;;;;;;;;;;;6217014;23;19919;-80
2023/01/14 02:49:40;;;;;;;;;;;;;;;;;;6213761;23;19911;-79
2023/01/14 02:52:06;;;;;;;;;;;;;;;;;;6212232;23;19947;-79
2023/01/14 02:54:32;;;;;;;;;;;;;;;;;;6211638;23;20284;-79
2023/01/14 02:56:58;;;;;;;;;;;;;;;;;;6211296;23;19920;-80
2023/01/14 02:59:24;;;;;;;;;;;;;;;;;;6188125;23;19947;-81
2023/01/14 03:01:54;;;;;;;;;;;;;;;;;;6191102;23;19919;-81
2023/01/14 03:04:20;;;;;;;;;;;;;;;;;;6217471;23;19912;-81
2023/01/14 03:06:47;;;;;;;;;;;;;;;;;;6213499;23;20277;-80
2023/01/14 03:09:15;;;;;;;;;;;;;;;;;;6189825;23;20038;-80
2023/01/14 03:11:41;;;;;;;;;;;;;;;;;;6214347;23;19963;-81
2023/01/14 03:14:06;;;;;;;;;;;;;;;;;;6215607;23;19916;-81
2023/01/14 03:16:32;;;;;;;;;;;;;;;;;;6188921;23;19912;-80
2023/01/14 03:18:58;;;;;;;;;;;;;;;;;;6215179;23;19927;-80
2023/01/14 03:21:24;;;;;;;;;;;;;;;;;;6190288;23;20369;-81
2023/01/14 03:23:51;;;;;;;;;;;;;;;;;;6216324;23;19912;-82
2023/01/14 03:26:16;;;;;;;;;;;;;;;;;;6223968;23;19922;-81
2023/01/14 03:28:43;;;;;;;;;;;;;;;;;;6220208;23;20341;-80
2023/01/14 03:31:08;;;;;;;;;;;;;;;;;;6218010;23;19911;-81
2023/01/14 03:33:41;;;;;;;;;;;;;;;;;;6192828;23;19943;-80
2023/01/14 03:36:07;;;;;;;;;;;;;;;;;;6188781;23;19916;-82
2023/01/14 03:38:32;;;;;;;;;;;;;;;;;;6215157;23;19920;-82
2023/01/14 03:40:59;;;;;;;;;;;;;;;;;;6216054;23;19911;-81
2023/01/14 03:43:25;;;;;;;;;;;;;;;;;;6222009;23;20011;-81
2023/01/14 03:45:50;;;;;;;;;;;;;;;;;;6228635;23;19911;-81
2023/01/14 03:48:16;;;;;;;;;;;;;;;;;;6231201;23;19916;-80
2023/01/14 03:50:42;;;;;;;;;;;;;;;;;;6231768;23;19975;-81
2023/01/14 03:53:08;;;;;;;;;;;;;;;;;;6228787;23;19912;-80
2023/01/14 03:55:33;;;;;;;;;;;;;;;;;;6195128;23;19919;-81
2023/01/14 03:57:59;;;;;;;;;;;;;;;;;;6188007;23;19920;-79
2023/01/14 04:00:25;;;;;;;;;;;;;;;;;;6214814;23;19916;-79
2023/01/14 04:02:50;;;;;;;;;;;;;;;;;;6213782;23;19973;-80
2023/01/14 04:05:17;;;;;;;;;;;;;;;;;;6213447;23;19916;-81
2023/01/14 04:07:42;;;;;;;;;;;;;;;;;;6216998;23;19919;-81
2023/01/14 04:10:08;;;;;;;;;;;;;;;;;;6215264;23;19912;-81
2023/01/14 04:15:20;;;;;;;;;;;;;;;;;;6186642;23;19918;-80
2023/01/14 04:15:23;;;;;;;;;;;;;;;;;;6213164;23;19995;-79
2023/01/14 04:17:49;;;;;;;;;;;;;;;;;;6189967;23;19942;-81
2023/01/14 04:20:15;;;;;;;;;;;;;;;;;;6217474;23;20545;-81
2023/01/14 04:22:40;;;;;;;;;;;;;;;;;;6216847;23;19919;-80
2023/01/14 04:25:06;;;;;;;;;;;;;;;;;;6216551;23;19916;-81
2023/01/14 04:27:32;;;;;;;;;;;;;;;;;;6218673;23;20367;-81
2023/01/14 04:29:58;;;;;;;;;;;;;;;;;;6215494;23;19915;-82
2023/01/14 04:32:23;;;;;;;;;;;;;;;;;;6212262;23;20565;-80
2023/01/14 04:34:49;;;;;;;;;;;;;;;;;;6212892;23;19912;-79
2023/01/14 04:37:15;;;;;;;;;;;;;;;;;;6211657;23;19943;-79
2023/01/14 04:39:41;;;;;;;;;;;;;;;;;;6212728;23;19958;-79
2023/01/14 04:44:51;;;;;;;;;;;;;;;;;;6213553;23;19919;-80
2023/01/14 04:47:16;;;;;;;;;;;;;;;;;;6213333;23;19916;-81
2023/01/14 04:49:42;;;;;;;;;;;;;;;;;;6188568;23;19919;-80
2023/01/14 04:52:09;;;;;;;;;;;;;;;;;;6213229;23;19935;-80
2023/01/14 04:54:34;;;;;;;;;;;;;;;;;;6213079;23;19908;-79
2023/01/14 04:57:00;;;;;;;;;;;;;;;;;;6211572;23;19920;-79
2023/01/14 04:59:26;;;;;;;;;;;;;;;;;;6211782;23;20242;-79
2023/01/14 05:01:52;;;;;;;;;;;;;;;;;;6211476;23;19911;-80
2023/01/14 05:04:17;;;;;;;;;;;;;;;;;;6214159;23;19912;-80
2023/01/14 05:06:43;;;;;;;;;;;;;;;;;;6184905;23;19912;-78
2023/01/14 05:09:09;;;;;;;;;;;;;;;;;;6184561;23;19919;-79
2023/01/14 05:11:34;;;;;;;;;;;;;;;;;;6210141;23;19918;-79
2023/01/14 05:14:00;;;;;;;;;;;;;;;;;;6211388;23;19912;-80
2023/01/14 05:16:27;;;;;;;;;;;;;;;;;;6212043;23;19923;-79
2023/01/14 05:18:52;;;;;;;;;;;;;;;;;;6209661;23;19990;-79
2023/01/14 05:21:18;;;;;;;;;;;;;;;;;;6211228;23;20372;-82
2023/01/14 05:23:44;;;;;;;;;;;;;;;;;;6214420;23;19912;-81
2023/01/14 05:26:10;;;;;;;;;;;;;;;;;;6211043;23;19916;-80
2023/01/14 05:28:36;;;;;;;;;;;;;;;;;;6210675;23;19998;-80
2023/01/14 05:31:02;;;;;;;;;;;;;;;;;;6214995;23;19927;-81
2023/01/14 05:33:28;;;;;;;;;;;;;;;;;;6215632;23;20415;-81
2023/01/14 05:35:53;;;;;;;;;;;;;;;;;;6212995;23;19935;-80
2023/01/14 05:38:19;;;;;;;;;;;;;;;;;;6212597;23;19999;-80
2023/01/14 05:40:45;;;;;;;;;;;;;;;;;;6216853;23;19912;-81
2023/01/14 05:45:55;;;;;;;;;;;;;;;;;;6213108;23;19912;-77
2023/01/14 05:48:21;;;;;;;;;;;;;;;;;;6222476;23;19958;-81
2023/01/14 05:50:46;;;;;;;;;;;;;;;;;;6227030;23;19922;-82
2023/01/14 05:53:12;;;;;;;;;;;;;;;;;;6226033;23;19935;-82
2023/01/14 05:55:38;;;;;;;;;;;;;;;;;;6222867;23;19919;-82
2023/01/14 05:58:03;;;;;;;;;;;;;;;;;;6223931;23;19920;-84
2023/01/14 06:08:26;;;;;;;;;;;;;;;;;;6219387;23;19920;-81
2023/01/14 06:10:53;;;;;;;;;;;;;;;;;;6218489;23;20285;-81
2023/01/14 06:13:21;;;;;;;;;;;;;;;;;;6218686;23;20642;-81
2023/01/14 06:15:46;;;;;;;;;;;;;;;;;;6213958;23;20003;-81
2023/01/14 06:18:21;;;;;;;;;;;;;;;;;;6214204;23;19931;-81
2023/01/14 06:20:46;;;;;;;;;;;;;;;;;;6213252;23;19950;-80
2023/01/14 06:23:13;;;;;;;;;;;;;;;;;;6218307;23;19912;-81
2023/01/14 06:25:38;;;;;;;;;;;;;;;;;;6220286;23;19919;-83
2023/01/14 06:28:04;;;;;;;;;;;;;;;;;;6222762;23;19912;-83
2023/01/14 06:30:30;;;;;;;;;;;;;;;;;;6222820;23;20001;-81
2023/01/14 06:32:56;;;;;;;;;;;;;;;;;;6195189;23;19916;-82
2023/01/14 06:35:22;;;;;;;;;;;;;;;;;;6221068;23;20308;-81
2023/01/14 06:37:47;;;;;;;;;;;;;;;;;;6220764;23;20020;-81
2023/01/14 06:40:13;;;;;;;;;;;;;;;;;;6214213;23;19919;-81
2023/01/14 06:42:40;;;;;;;;;;;;;;;;;;6214214;23;19958;-82
2023/01/14 06:45:05;;;;;;;;;;;;;;;;;;6215797;23;19916;-82
2023/01/14 06:47:31;;;;;;;;;;;;;;;;;;6213182;23;19920;-81
2023/01/14 06:49:57;;;;;;;;;;;;;;;;;;6215277;23;20241;-80
2023/01/14 06:52:22;;;;;;;;;;;;;;;;;;6190250;23;19912;-81
2023/01/14 06:54:48;;;;;;;;;;;;;;;;;;6217497;23;19912;-81
2023/01/14 06:57:14;;;;;;;;;;;;;;;;;;6185302;23;19920;-79
2023/01/14 06:59:39;;;;;;;;;;;;;;;;;;6212620;23;19966;-79
2023/01/14 07:02:05;;;;;;;;;;;;;;;;;;6211038;23;20361;-80
2023/01/14 07:04:31;;;;;;;;;;;;;;;;;;6226334;23;20172;-83
2023/01/14 07:06:57;;;;;;;;;;;;;;;;;;6223905;23;19919;-83
2023/01/14 07:09:22;;;;;;;;;;;;;;;;;;6224428;23;19947;-81
2023/01/14 07:11:52;;;;;;;;;;;;;;;;;;6225297;23;19912;-82
2023/01/14 07:14:18;;;;;;;;;;;;;;;;;;6197239;23;19959;-82
2023/01/14 07:16:43;;;;;;;;;;;;;;;;;;6217541;23;20241;-82
2023/01/14 07:19:11;;;;;;;;;;;;;;;;;;6198030;23;20479;-81
2023/01/14 07:21:37;;;;;;;;;;;;;;;;;;6197991;23;20003;-81
2023/01/14 07:24:02;;;;;;;;;;;;;;;;;;6222912;23;20250;-81
2023/01/14 07:26:28;;;;;;;;;;;;;;;;;;6225186;23;19916;-82
2023/01/14 07:28:54;;;;;;;;;;;;;;;;;;6202438;23;19931;-82
2023/01/14 07:31:20;;;;;;;;;;;;;;;;;;6232489;23;19911;-82
2023/01/14 07:33:45;;;;;;;;;;;;;;;;;;6233743;23;19919;-83
2023/01/14 07:36:11;;;;;;;;;;;;;;;;;;6235551;23;19919;-84
2023/01/14 07:38:37;;;;;;;;;;;;;;;;;;6238620;23;19924;-83
2023/01/14 07:41:02;;;;;;;;;;;;;;;;;;6241608;23;19908;-83
2023/01/14 07:43:28;;;;;;;;;;;;;;;;;;6236870;23;19958;-84
2023/01/14 07:45:56;;;;;;;;;;;;;;;;;;6236451;23;20385;-85
2023/01/14 07:48:22;;;;;;;;;;;;;;;;;;6237003;23;19912;-84
2023/01/14 07:50:48;;;;;;;;;;;;;;;;;;6236395;23;19924;-85
2023/01/14 07:53:13;;;;;;;;;;;;;;;;;;6237782;23;19964;-84
2023/01/14 07:55:39;;;;;;;;;;;;;;;;;;6236622;23;19896;-83
2023/01/14 07:58:05;;;;;;;;;;;;;;;;;;6210963;23;20407;-85
2023/01/14 08:00:30;;;;;;;;;;;;;;;;;;6235000;23;19978;-84
2023/01/14 08:02:56;;;;;;;;;;;;;;;;;;6229688;23;19936;-83
2023/01/14 08:05:22;;;;;;;;;;;;;;;;;;6232281;23;19912;-83
2023/01/14 08:07:47;;;;;;;;;;;;;;;;;;6229856;23;19911;-84
2023/01/14 08:10:13;;;;;;;;;;;;;;;;;;6229567;23;19937;-83
2023/01/14 08:12:39;;;;;;;;;;;;;;;;;;6231128;23;19918;-83
2023/01/14 08:15:05;;;;;;;;;;;;;;;;;;6230998;23;19911;-85
2023/01/14 08:17:31;;;;;;;;;;;;;;;;;;6229249;23;19927;-84
2023/01/14 08:19:57;;;;;;;;;;;;;;;;;;6228174;23;20674;-82
2023/01/14 08:22:22;;;;;;;;;;;;;;;;;;6235675;23;19922;-81
2023/01/14 08:24:48;;;;;;;;;;;;;;;;;;6231929;23;20685;-82
2023/01/14 08:27:14;;;;;;;;;;;;;;;;;;6231642;23;19912;-83
2023/01/14 08:29:39;;;;;;;;;;;;;;;;;;6228457;23;19908;-83
2023/01/14 08:32:05;;;;;;;;;;;;;;;;;;6229399;23;19912;-83
2023/01/14 08:34:31;;;;;;;;;;;;;;;;;;6228971;23;19912;-83
2023/01/14 08:36:57;;;;;;;;;;;;;;;;;;6229305;23;19916;-81
2023/01/14 08:39:22;;;;;;;;;;;;;;;;;;6231376;23;19911;-83
2023/01/14 08:41:48;;;;;;;;;;;;;;;;;;6227985;23;19912;-83
2023/01/14 08:44:15;;;;;;;;;;;;;;;;;;6233610;23;19962;-84
2023/01/14 08:46:41;;;;;;;;;;;;;;;;;;6221959;23;19916;-83
2023/01/14 08:49:07;;;;;;;;;;;;;;;;;;6223861;23;19915;-82
2023/01/14 08:51:32;;;;;;;;;;;;;;;;;;6229133;23;20324;-84
2023/01/14 08:54:01;;;;;;;;;;;;;;;;;;6237317;23;19892;-84
2023/01/14 08:56:27;;;;;;;;;;;;;;;;;;6238522;23;19960;-84
2023/01/14 08:58:52;;;;;;;;;;;;;;;;;;6239609;23;19900;-84
2023/01/14 09:01:18;;;;;;;;;;;;;;;;;;6239344;23;19918;-84
2023/01/14 09:03:46;;;;;;;;;;;;;;;;;;6234447;23;19968;-87
2023/01/14 09:06:11;;;;;;;;;;;;;;;;;;6235280;23;19912;-84
2023/01/14 09:17:06;;;;;;;;;;;;;;;;;;6226937;23;19912;-82
2023/01/14 09:19:31;;;;;;;;;;;;;;;;;;6216763;23;19912;-82
2023/01/14 09:21:57;;;;;;;;;;;;;;;;;;6226563;23;19935;-82
2023/01/14 09:24:22;;;;;;;;;;;;;;;;;;6230871;23;19908;-82
2023/01/14 09:26:48;;;;;;;;;;;;;;;;;;6225584;23;19999;-83
2023/01/14 09:29:14;;;;;;;;;;;;;;;;;;6219137;23;19912;-81
2023/01/14 09:31:39;;;;;;;;;;;;;;;;;;6220185;23;19966;-83
2023/01/14 09:34:05;;;;;;;;;;;;;;;;;;6226825;23;19892;-87
2023/01/14 09:36:30;;;;;;;;;;;;;;;;;;6188572;23;19899;-85
2023/01/14 09:38:56;;;;;;;;;;;;;;;;;;6238019;23;19924;-85
2023/01/14 09:41:21;;;;;;;;;;;;;;;;;;6234841;23;19922;-86
2023/01/14 09:43:47;;;;;;;;;;;;;;;;;;6237025;23;19912;-85
2023/01/14 09:46:13;;;;;;;;;;;;;;;;;;6238303;23;20365;-86
2023/01/14 09:48:39;;;;;;;;;;;;;;;;;;6232750;23;19931;-82
2023/01/14 09:51:04;;;;;;;;;;;;;;;;;;6229141;23;19912;-79
2023/01/14 09:53:30;;;;;;;;;;;;;;;;;;6211277;23;19923;-82
2023/01/14 09:55:56;;;;;;;;;;;;;;;;;;6177758;23;19915;-84
2023/01/14 09:58:22;;;;;;;;;;;;;;;;;;6206536;23;19920;-85
2023/01/14 10:00:47;;;;;;;;;;;;;;;;;;6229719;23;19912;-82
2023/01/14 10:03:13;;;;;;;;;;;;;;;;;;6219188;23;19927;-83
2023/01/14 10:05:39;;;;;;;;;;;;;;;;;;6222066;23;19916;-79
2023/01/14 10:08:04;;;;;;;;;;;;;;;;;;6181530;23;19919;-84
2023/01/14 10:10:30;;;;;;;;;;;;;;;;;;6233168;23;19915;-85
2023/01/14 10:12:56;;;;;;;;;;;;;;;;;;6225947;23;19908;-85
2023/01/14 10:15:22;;;;;;;;;;;;;;;;;;6179091;23;19912;-84
2023/01/14 10:17:47;;;;;;;;;;;;;;;;;;6204669;23;19971;-84
2023/01/14 10:20:13;;;;;;;;;;;;;;;;;;6232149;23;19956;-86
2023/01/14 10:22:39;;;;;;;;;;;;;;;;;;6182198;23;19946;-85
2023/01/14 10:25:05;;;;;;;;;;;;;;;;;;6182473;23;19919;-85
2023/01/14 10:27:31;;;;;;;;;;;;;;;;;;6182337;23;19912;-84
2023/01/14 10:29:57;;;;;;;;;;;;;;;;;;6182343;23;19919;-84
2023/01/14 10:32:22;;;;;;;;;;;;;;;;;;6233281;23;19984;-85
2023/01/14 10:34:48;;;;;;;;;;;;;;;;;;6208906;23;19903;-85
2023/01/14 10:37:15;;;;;;;;;;;;;;;;;;6232472;23;19920;-87
2023/01/14 10:39:41;;;;;;;;;;;;;;;;;;6206994;23;19892;-85
2023/01/14 10:42:10;;;;;;;;;;;;;;;;;;6236771;23;19912;-85
2023/01/14 10:44:38;;;;;;;;;;;;;;;;;;6213295;23;19915;-85
2023/01/14 10:47:03;;;;;;;;;;;;;;;;;;6213930;23;19916;-85
2023/01/14 10:49:29;;;;;;;;;;;;;;;;;;6187291;23;19916;-85
2023/01/14 10:51:57;;;;;;;;;;;;;;;;;;6234825;23;19989;-84
2023/01/14 10:54:23;;;;;;;;;;;;;;;;;;6232881;23;19931;-85
2023/01/14 10:56:48;;;;;;;;;;;;;;;;;;6207471;23;19915;-85
2023/01/14 10:59:14;;;;;;;;;;;;;;;;;;6228543;23;19950;-84
2023/01/14 11:01:41;;;;;;;;;;;;;;;;;;6179257;23;19911;-85
2023/01/14 11:04:07;;;;;;;;;;;;;;;;;;6203121;23;19920;-85
2023/01/14 11:06:33;;;;;;;;;;;;;;;;;;6179609;23;19912;-86
2023/01/14 11:08:58;;;;;;;;;;;;;;;;;;6181689;23;19919;-86
2023/01/14 11:11:24;;;;;;;;;;;;;;;;;;6180222;23;19952;-85
2023/01/14 11:13:53;;;;;;;;;;;;;;;;;;6228130;23;19919;-86
2023/01/14 11:16:18;;;;;;;;;;;;;;;;;;6225183;23;19955;-85
2023/01/14 11:18:44;;;;;;;;;;;;;;;;;;6227107;23;19923;-86
2023/01/14 11:21:10;;;;;;;;;;;;;;;;;;6228736;23;19912;-85
2023/01/14 11:23:36;;;;;;;;;;;;;;;;;;6231371;23;19919;-86
2023/01/14 11:26:02;;;;;;;;;;;;;;;;;;6184448;23;19953;-85
2023/01/14 11:28:27;;;;;;;;;;;;;;;;;;6236089;23;19935;-85
2023/01/14 11:30:54;;;;;;;;;;;;;;;;;;6235038;23;19912;-84
2023/01/14 11:33:20;;;;;;;;;;;;;;;;;;6182668;23;19911;-85
2023/01/14 11:35:46;;;;;;;;;;;;;;;;;;6185633;23;20455;-85
2023/01/14 11:38:11;;;;;;;;;;;;;;;;;;6206748;23;19920;-83
2023/01/14 11:41:41;;;;;;;;;;;;;;;;;;6234781;23;19939;-84
2023/01/14 11:43:35;;;;;;;;;;;;;;;;;;6187721;23;19911;-84
2023/01/14 11:46:01;;;;;;;;;;;;;;;;;;6233013;23;19927;-84
2023/01/14 11:48:28;;;;;;;;;;;;;;;;;;6205188;23;19936;-84
2023/01/14 11:50:54;;;;;;;;;;;;;;;;;;6183898;23;19919;-84
2023/01/14 11:53:26;;;;;;;;;;;;;;;;;;6180960;23;19943;-85
2023/01/14 11:55:52;;;;;;;;;;;;;;;;;;6182474;23;19951;-84
2023/01/14 11:58:19;;;;;;;;;;;;;;;;;;6231098;23;19924;-82
2023/01/14 12:00:47;;;;;;;;;;;;;;;;;;6182933;23;19916;-84
2023/01/14 12:03:12;;;;;;;;;;;;;;;;;;6207182;23;19990;-84
2023/01/14 12:05:38;;;;;;;;;;;;;;;;;;6211167;23;19927;-84
2023/01/14 12:08:06;;;;;;;;;;;;;;;;;;6237918;23;19892;-83
2023/01/14 12:10:32;;;;;;;;;;;;;;;;;;6237598;23;19946;-79
2023/01/14 12:18:26;;;;;;;;;;;;;;;;;;6234074;23;19971;-83
2023/01/14 12:20:52;;;;;;;;;;;;;;;;;;6200984;23;19912;-83
2023/01/14 12:23:18;;;;;;;;;;;;;;;;;;6233557;23;19912;-83
2023/01/14 12:25:43;;;;;;;;;;;;;;;;;;6237140;23;19998;-84
2023/01/14 12:28:09;;;;;;;;;;;;;;;;;;6237063;23;19960;-83
2023/01/14 12:30:35;;;;;;;;;;;;;;;;;;6235093;23;19972;-83
2023/01/14 12:33:01;;;;;;;;;;;;;;;;;;6209305;23;19904;-83
2023/01/14 12:35:27;;;;;;;;;;;;;;;;;;6234209;23;19919;-83
2023/01/14 12:37:56;;;;;;;;;;;;;;;;;;6222522;23;19982;-83
2023/01/14 12:45:47;;;;;;;;;;;;;;;;;;6186075;23;19912;-80
2023/01/14 12:48:13;;;;;;;;;;;;;;;;;;6213168;23;19986;-80
2023/01/14 12:50:38;;;;;;;;;;;;;;;;;;6216647;23;19919;-81
2023/01/14 12:53:04;;;;;;;;;;;;;;;;;;6217069;23;20372;-82
2023/01/14 12:55:30;;;;;;;;;;;;;;;;;;6218161;23;19912;-81
2023/01/14 12:57:55;;;;;;;;;;;;;;;;;;6223048;23;19978;-82
2023/01/14 13:00:21;;;;;;;;;;;;;;;;;;6231514;23;19928;-82
2023/01/14 13:02:47;;;;;;;;;;;;;;;;;;6237962;23;19899;-85
2023/01/14 13:05:13;;;;;;;;;;;;;;;;;;6233302;23;19953;-81
2023/01/14 13:07:38;;;;;;;;;;;;;;;;;;6224422;23;19916;-80
2023/01/14 13:10:04;;;;;;;;;;;;;;;;;;6201179;23;19966;-82
2023/01/14 13:12:30;;;;;;;;;;;;;;;;;;6227257;23;19912;-82
2023/01/14 13:14:55;;;;;;;;;;;;;;;;;;6231123;23;19922;-82
2023/01/14 13:17:21;;;;;;;;;;;;;;;;;;6235039;23;19986;-81
2023/01/14 13:19:47;;;;;;;;;;;;;;;;;;6178202;23;20300;-81
2023/01/14 13:22:13;;;;;;;;;;;;;;;;;;6228196;23;19923;-81
2023/01/14 13:24:38;;;;;;;;;;;;;;;;;;6221249;23;19916;-81
2023/01/14 13:27:04;;;;;;;;;;;;;;;;;;6220328;23;20018;-83
2023/01/14 13:29:30;;;;;;;;;;;;;;;;;;6226420;23;19931;-82
2023/01/14 13:31:55;;;;;;;;;;;;;;;;;;6228479;23;19924;-82
2023/01/14 13:34:21;;;;;;;;;;;;;;;;;;6233719;23;19935;-83
2023/01/14 13:36:47;;;;;;;;;;;;;;;;;;6235042;23;19912;-81
2023/01/14 13:39:12;;;;;;;;;;;;;;;;;;6238261;23;19904;-83
2023/01/14 13:41:39;;;;;;;;;;;;;;;;;;6235750;23;20105;-82
2023/01/14 13:44:04;;;;;;;;;;;;;;;;;;6237560;23;19912;-85
2023/01/14 13:46:30;;;;;;;;;;;;;;;;;;6237773;22;19900;-81
2023/01/14 13:48:56;;;;;;;;;;;;;;;;;;6252434;22;19923;-80
2023/01/14 13:51:24;;;;;;;;;;;;;;;;;;6213325;22;19924;-82
2023/01/14 13:53:50;;;;;;;;;;;;;;;;;;6234981;23;19912;-84
2023/01/14 13:56:16;;;;;;;;;;;;;;;;;;6238165;23;19931;-84
2023/01/14 13:58:42;;;;;;;;;;;;;;;;;;6240393;22;19928;-82
2023/01/14 14:01:07;;;;;;;;;;;;;;;;;;6233139;22;19908;-82
2023/01/14 14:03:33;;;;;;;;;;;;;;;;;;6239434;23;19900;-84
2023/01/14 14:05:59;;;;;;;;;;;;;;;;;;6241467;23;19920;-83
2023/01/14 14:08:25;;;;;;;;;;;;;;;;;;6236447;23;19939;-81
2023/01/14 14:10:51;;;;;;;;;;;;;;;;;;6226372;23;19911;-83
2023/01/14 14:16:01;;;;;;;;;;;;;;;;;;6221134;23;19899;-78
2023/01/14 14:18:26;;;;;;;;;;;;;;;;;;6212039;23;19919;-77
2023/01/14 14:20:52;;;;;;;;;;;;;;;;;;6186480;23;19915;-78
2023/01/14 14:23:18;;;;;;;;;;;;;;;;;;6210386;23;20357;-78
2023/01/14 14:25:43;;;;;;;;;;;;;;;;;;6212283;23;19912;-78
2023/01/14 14:28:09;;;;;;;;;;;;;;;;;;6187526;23;20312;-79
2023/01/14 14:30:37;;;;;;;;;;;;;;;;;;6214617;23;20288;-78
2023/01/14 14:33:03;;;;;;;;;;;;;;;;;;6215628;23;20414;-77
2023/01/14 14:35:28;;;;;;;;;;;;;;;;;;6188534;23;19916;-78
2023/01/14 14:37:55;;;;;;;;;;;;;;;;;;6214419;23;19920;-79
2023/01/14 14:40:20;;;;;;;;;;;;;;;;;;6188722;23;19934;-78
2023/01/14 14:42:46;;;;;;;;;;;;;;;;;;6215814;23;19912;-77
2023/01/14 14:45:11;;;;;;;;;;;;;;;;;;6215069;23;19994;-79
2023/01/14 14:47:37;;;;;;;;;;;;;;;;;;6215483;23;20391;-78
2023/01/14 14:50:03;;;;;;;;;;;;;;;;;;6217441;23;19912;-79
2023/01/14 14:52:28;;;;;;;;;;;;;;;;;;6213865;23;19966;-77
2023/01/14 14:54:54;;;;;;;;;;;;;;;;;;6212136;23;19912;-77
2023/01/14 14:57:20;;;;;;;;;;;;;;;;;;6187458;23;20261;-77
2023/01/14 14:59:46;;;;;;;;;;;;;;;;;;6213136;23;19962;-77
2023/01/14 15:02:12;;;;;;;;;;;;;;;;;;6210426;23;20340;-77
2023/01/14 15:04:38;;;;;;;;;;;;;;;;;;6211993;23;20002;-76
2023/01/14 15:07:03;;;;;;;;;;;;;;;;;;6212093;23;19999;-78
2023/01/14 15:09:29;;;;;;;;;;;;;;;;;;6213201;23;20118;-76
2023/01/14 15:11:55;;;;;;;;;;;;;;;;;;6211924;23;19916;-78
2023/01/14 15:14:20;;;;;;;;;;;;;;;;;;6188390;23;19912;-78
2023/01/14 15:16:46;;;;;;;;;;;;;;;;;;6219699;23;19919;-78
2023/01/14 15:19:12;;;;;;;;;;;;;;;;;;6227607;23;19915;-77
2023/01/14 15:21:37;;;;;;;;;;;;;;;;;;6225344;23;19911;-75
2023/01/14 15:24:03;;;;;;;;;;;;;;;;;;6204081;23;19950;-76
2023/01/14 15:26:29;;;;;;;;;;;;;;;;;;6229299;23;19919;-74
2023/01/14 15:28:54;;;;;;;;;;;;;;;;;;6227528;23;19896;-75
2023/01/14 15:31:20;;;;;;;;;;;;;;;;;;6225771;23;19919;-75
2023/01/14 15:33:46;;;;;;;;;;;;;;;;;;6227226;23;19912;-75
2023/01/14 15:36:11;;;;;;;;;;;;;;;;;;6220173;23;19951;-77
2023/01/14 15:38:37;;;;;;;;;;;;;;;;;;6229591;23;19924;-75
2023/01/14 15:41:02;;;;;;;;;;;;;;;;;;6227889;23;19911;-75
2023/01/14 15:43:28;;;;;;;;;;;;;;;;;;6216948;23;19912;-79
2023/01/14 15:45:54;;;;;;;;;;;;;;;;;;6187807;23;19911;-78
2023/01/14 15:48:19;;;;;;;;;;;;;;;;;;6223684;23;19923;-77
2023/01/14 15:50:45;;;;;;;;;;;;;;;;;;6213857;23;20003;-75
2023/01/14 15:53:11;;;;;;;;;;;;;;;;;;6208587;23;19918;-77
2023/01/14 15:55:36;;;;;;;;;;;;;;;;;;6207884;23;19965;-76
2023/01/14 15:58:02;;;;;;;;;;;;;;;;;;6209291;23;20300;-77
2023/01/14 16:00:30;;;;;;;;;;;;;;;;;;6208641;23;19958;-76
2023/01/14 16:03:00;;;;;;;;;;;;;;;;;;6210169;23;19947;-75
2023/01/14 16:05:27;;;;;;;;;;;;;;;;;;6208404;23;20498;-77
2023/01/14 16:07:52;;;;;;;;;;;;;;;;;;6211494;23;19918;-76
2023/01/14 16:10:18;;;;;;;;;;;;;;;;;;6209447;23;19929;-77
2023/01/14 16:12:44;;;;;;;;;;;;;;;;;;6209249;23;20305;-77
2023/01/14 16:15:10;;;;;;;;;;;;;;;;;;6210580;23;19939;-77
2023/01/14 16:17:35;;;;;;;;;;;;;;;;;;6184191;23;19920;-76
2023/01/14 16:20:01;;;;;;;;;;;;;;;;;;6211248;23;19912;-77
2023/01/14 16:22:27;;;;;;;;;;;;;;;;;;6209293;23;19966;-78
2023/01/14 16:24:52;;;;;;;;;;;;;;;;;;6210886;23;19912;-77
2023/01/14 16:27:18;;;;;;;;;;;;;;;;;;6208580;23;19907;-76
2023/01/14 16:29:44;;;;;;;;;;;;;;;;;;6209301;23;19912;-76
2023/01/14 16:32:10;;;;;;;;;;;;;;;;;;6181570;23;19919;-76
2023/01/14 16:34:36;;;;;;;;;;;;;;;;;;6209494;23;20261;-76
2023/01/14 16:37:01;;;;;;;;;;;;;;;;;;6207535;23;19982;-77
2023/01/14 16:39:31;;;;;;;;;;;;;;;;;;6188618;23;19947;-83
2023/01/14 17:36:13;;;;;;;;;;;;;;;;;;6265205;23;19982;-82
2023/01/14 17:38:41;;;;;;;;;;;;;;;;;;6240096;23;19919;-82
2023/01/14 17:42:10;;;;;;;;;;;;;;;;;;6239383;23;19912;-83
2023/01/14 17:43:53;;;;;;;;;;;;;;;;;;6236185;23;19912;-81
2023/01/14 17:46:18;;;;;;;;;;;;;;;;;;6236497;23;20336;-81
2023/01/14 17:48:44;;;;;;;;;;;;;;;;;;6230988;23;19959;-82
2023/01/14 17:51:09;;;;;;;;;;;;;;;;;;6227010;23;19911;-82
2023/01/14 17:53:35;;;;;;;;;;;;;;;;;;6195999;23;19908;-80
2023/01/14 17:56:01;;;;;;;;;;;;;;;;;;6253282;23;19947;-86
2023/01/14 17:58:26;;;;;;;;;;;;;;;;;;6242957;23;19947;-84
2023/01/14 18:00:52;;;;;;;;;;;;;;;;;;6270179;22;19896;-84
2023/01/14 18:03:18;;;;;;;;;;;;;;;;;;6270962;23;19945;-84
2023/01/14 18:05:43;;;;;;;;;;;;;;;;;;6268436;22;19900;-86
2023/01/14 18:08:09;;;;;;;;;;;;;;;;;;6267697;22;19915;-82
2023/01/14 18:10:34;;;;;;;;;;;;;;;;;;6247163;23;20328;-83